CYZE

Details ICAO CYZE (YZE)
Name GORE BAY MANITOULIN
Region Canada
Timezone America/Toronto (UTC-4.0)
Plans Departing 3
Arriving 4
Stats Elevation 635 ft / 194 m (AMSL)
Location 45.885278° -82.567779°
Runways 1
Magnetic Variation 8.765° W
Sunrise 2018-05-26 09:49:04 UTC / 2018-05-26 05:49:04 Local
Sunset 2018-05-27 01:08:29 UTC / 2018-05-26 21:08:29 Local
Advertisement - Login to hide

Runways

ID Width Length Bearing (true) Bearing (mag) Surface Threshold Offset Overrun Length
11 100 ft / 30 m 4,837 ft / 1,474 m 97.22° 105.99° Asphalt 0 ft / 0 m 300 ft / 91 m
29 100 ft / 30 m 4,837 ft / 1,474 m 277.23° 286.00° Asphalt 0 ft / 0 m 300 ft / 91 m

Map

Weather


0- 5 10 15 20 25 30 35+ Temperature / ° C

Clouds and Precipitation
Forecast for 2018-05-26 06:00 UTC. Updated 3 hours ago

Ground ~20,000 ft ~40,000 ft Winds

METAR

CYZE 260824Z AUTO 04005KT 4SM -TSRA BR FEW080 SCT092 OVC110 14/14 A2971 RMK LTNG DIST N W NW SLP064 DENSITY ALT 900FT

TAF

Not found

Frequencies

Recorded 128.72 MHz AWOS
Unicom 122.80 MHz CTAF/UNICOM
Warning: Do not use this data for real-world aviation or navigation. No guarantee of current accuracy is given.